createdAt,value
2018-05-21T00:01:53.081Z,10.60
2018-05-21T00:04:20.870Z,10.48
2018-05-21T00:06:47.267Z,10.77
2018-05-21T00:09:13.711Z,10.13
2018-05-21T00:11:40.095Z,10.80
2018-05-21T00:14:06.543Z,10.85
2018-05-21T00:16:32.927Z,10.40
2018-05-21T00:19:00.076Z,11.03
2018-05-21T00:21:27.187Z,11.27
2018-05-21T00:23:53.613Z,11.00
2018-05-21T00:26:19.992Z,11.73
2018-05-21T00:28:46.396Z,10.80
2018-05-21T00:31:12.811Z,10.10
2018-05-21T00:33:39.185Z,11.60
2018-05-21T00:36:05.584Z,11.07
2018-05-21T00:38:31.971Z,12.32
2018-05-21T00:40:59.111Z,11.00
2018-05-21T00:43:26.254Z,11.27
2018-05-21T00:45:53.416Z,11.60
2018-05-21T00:48:20.533Z,11.05
2018-05-21T00:50:46.926Z,11.23
2018-05-21T00:53:13.373Z,11.05
2018-05-21T00:55:39.755Z,11.80
2018-05-21T00:58:06.193Z,11.60
2018-05-21T01:00:32.607Z,11.10
2018-05-21T01:02:59.057Z,10.85
2018-05-21T01:05:25.448Z,11.27
2018-05-21T01:07:51.837Z,11.60
2018-05-21T01:10:18.975Z,11.20
2018-05-21T01:12:45.380Z,12.30
2018-05-21T01:15:11.778Z,11.80
2018-05-21T01:17:38.159Z,12.43
2018-05-21T01:20:04.606Z,11.40
2018-05-21T01:22:30.984Z,11.60
2018-05-21T01:24:57.413Z,11.80
2018-05-21T01:27:23.800Z,11.60
2018-05-21T01:29:50.199Z,11.43
2018-05-21T01:32:16.575Z,11.10
2018-05-21T01:34:42.971Z,12.30
2018-05-21T01:37:09.360Z,11.43
2018-05-21T01:39:36.484Z,12.57
2018-05-21T01:42:02.925Z,12.10
2018-05-21T01:44:29.301Z,12.67
2018-05-21T01:46:55.721Z,11.55
2018-05-21T01:49:22.920Z,12.27
2018-05-21T01:51:49.291Z,12.30
2018-05-21T01:54:15.683Z,13.27
2018-05-21T01:56:42.080Z,11.63
2018-05-21T01:59:09.236Z,11.75
2018-05-21T02:01:35.644Z,11.80
2018-05-21T02:04:02.052Z,12.50
2018-05-21T02:06:28.451Z,12.52
2018-05-21T02:08:54.820Z,12.27
2018-05-21T02:11:21.252Z,12.27
2018-05-21T02:13:47.639Z,12.25
2018-05-21T02:16:14.817Z,11.73
2018-05-21T02:18:41.196Z,13.23
2018-05-21T02:21:07.607Z,12.18
2018-05-21T02:23:33.996Z,12.30
2018-05-21T02:26:00.415Z,12.43
2018-05-21T02:28:27.532Z,11.95
2018-05-21T02:30:53.932Z,12.48
2018-05-21T02:33:20.321Z,13.40
2018-05-21T02:35:46.727Z,13.13
2018-05-21T02:38:13.146Z,13.07
2018-05-21T02:40:39.521Z,13.80
2018-05-21T02:43:05.923Z,13.68
2018-05-21T02:45:32.293Z,13.77
2018-05-21T02:47:58.724Z,13.52
2018-05-21T02:50:25.123Z,15.05
2018-05-21T02:52:51.528Z,14.40
2018-05-21T02:55:17.925Z,14.65
2018-05-21T02:57:44.315Z,14.85
2018-05-21T03:00:10.714Z,15.80
2018-05-21T03:02:37.863Z,15.13
2018-05-21T03:05:05.009Z,14.73
2018-05-21T03:07:32.156Z,14.63
2018-05-21T03:09:59.310Z,15.00
2018-05-21T03:12:26.441Z,15.77
2018-05-21T03:14:52.842Z,15.00
2018-05-21T03:17:19.280Z,14.98
2018-05-21T03:19:45.676Z,15.95
2018-05-21T03:22:13.132Z,14.80
2018-05-21T03:24:40.279Z,15.20
2018-05-21T03:27:07.422Z,15.70
2018-05-21T03:29:34.561Z,13.95
2018-05-21T03:32:00.980Z,14.10
2018-05-21T03:34:27.348Z,14.90
2018-05-21T03:36:54.477Z,14.27
2018-05-21T03:39:20.878Z,15.13
2018-05-21T03:41:47.279Z,15.57
2018-05-21T03:44:14.399Z,14.30
2018-05-21T03:46:41.596Z,14.13
2018-05-21T03:49:08.005Z,14.40
2018-05-21T03:51:35.119Z,14.50
2018-05-21T03:54:01.536Z,13.85
2018-05-21T03:56:28.016Z,13.60
2018-05-21T03:59:07.332Z,13.25
2018-05-21T04:01:46.136Z,13.30
2018-05-21T04:04:12.514Z,13.30
2018-05-21T04:06:38.915Z,13.75
2018-05-21T04:09:05.364Z,13.30
2018-05-21T04:11:31.753Z,13.20
2018-05-21T04:13:58.152Z,12.90
2018-05-21T04:16:25.264Z,13.35
2018-05-21T04:18:51.744Z,13.40
2018-05-21T04:21:18.085Z,13.38
2018-05-21T04:23:45.216Z,13.10
2018-05-21T04:26:11.632Z,13.10
2018-05-21T04:28:38.016Z,12.88
2018-05-21T04:31:04.437Z,12.10
2018-05-21T04:33:30.815Z,12.48
2018-05-21T04:35:57.230Z,12.35
2018-05-21T04:38:23.618Z,12.60
2018-05-21T04:40:50.773Z,12.82
2018-05-21T04:43:17.914Z,11.57
2018-05-21T04:45:44.300Z,12.37
2018-05-21T04:48:10.712Z,13.30
2018-05-21T04:50:37.843Z,12.85
2018-05-21T04:53:05.004Z,13.10
2018-05-21T04:55:32.167Z,12.50
2018-05-21T04:57:59.287Z,12.50
2018-05-21T05:00:25.689Z,13.02
2018-05-21T05:02:52.072Z,12.40
2018-05-21T05:05:19.208Z,12.40
2018-05-21T05:07:45.606Z,12.25
2018-05-21T05:10:12.095Z,12.60
2018-05-21T05:12:39.224Z,13.65
2018-05-21T05:15:05.618Z,12.60
2018-05-21T05:17:32.015Z,13.27
2018-05-21T05:19:59.140Z,13.10
2018-05-21T05:22:25.528Z,12.32
2018-05-21T05:24:51.924Z,13.25
2018-05-21T05:27:19.105Z,13.50
2018-05-21T05:29:45.493Z,12.25
2018-05-21T05:32:11.868Z,13.00
2018-05-21T05:34:38.999Z,12.80
2018-05-21T05:37:05.373Z,12.13
2018-05-21T05:39:31.776Z,13.00
2018-05-21T05:41:58.923Z,12.37
2018-05-21T05:44:26.053Z,12.68
2018-05-21T05:46:52.482Z,12.23
2018-05-21T05:49:18.856Z,12.30
2018-05-21T05:51:45.243Z,11.75
2018-05-21T05:54:11.619Z,12.30
2018-05-21T05:56:38.750Z,12.15
2018-05-21T05:59:05.116Z,12.32
2018-05-21T06:01:31.507Z,12.23
2018-05-21T06:03:57.974Z,11.75
2018-05-21T06:06:24.340Z,11.65
2018-05-21T06:08:50.746Z,12.40
2018-05-21T06:11:17.120Z,12.20
2018-05-21T06:13:43.608Z,12.33
2018-05-21T06:16:09.952Z,12.77
2018-05-21T06:18:36.357Z,11.82
2018-05-21T06:21:02.758Z,12.40
2018-05-21T06:23:29.139Z,13.10
2018-05-21T06:25:56.327Z,12.10
2018-05-21T06:28:22.744Z,12.25
2018-05-21T06:30:49.208Z,12.07
2018-05-21T06:33:15.609Z,11.90
2018-05-21T06:35:42.025Z,12.07
2018-05-21T06:38:09.187Z,12.05
2018-05-21T06:40:36.302Z,11.40
2018-05-21T06:43:02.773Z,11.12
2018-05-21T06:45:29.154Z,11.93
2018-05-21T06:47:55.566Z,11.32
2018-05-21T06:50:21.946Z,12.68
2018-05-21T06:52:48.355Z,11.98
2018-05-21T06:55:14.879Z,11.65
2018-05-21T06:57:41.276Z,11.63
2018-05-21T07:00:08.416Z,11.15
2018-05-21T07:02:35.617Z,11.30
2018-05-21T07:05:02.038Z,11.05
2018-05-21T07:07:28.423Z,11.60
2018-05-21T07:09:54.834Z,11.20
2018-05-21T07:12:21.239Z,11.80
2018-05-21T07:14:47.676Z,10.40
2018-05-21T07:17:14.180Z,10.80
2018-05-21T07:19:41.332Z,11.43
2018-05-21T07:22:08.511Z,11.20
2018-05-21T07:24:34.908Z,10.70
2018-05-21T07:27:01.320Z,11.10
2018-05-21T07:29:27.739Z,9.60
2018-05-21T07:31:54.240Z,10.20
2018-05-21T07:34:20.752Z,11.38
2018-05-21T07:36:47.944Z,10.50
2018-05-21T07:39:14.436Z,9.80
2018-05-21T07:41:40.835Z,9.52
2018-05-21T07:44:07.205Z,9.88
2018-05-21T07:46:33.620Z,11.38
2018-05-21T07:49:00.003Z,10.93
2018-05-21T07:51:26.565Z,11.18
2018-05-21T07:53:53.595Z,10.85
2018-05-21T07:56:19.987Z,12.05
2018-05-21T07:58:46.392Z,11.20
2018-05-21T08:01:12.783Z,12.40
2018-05-21T08:03:39.213Z,10.40
2018-05-21T08:06:06.380Z,10.50
2018-05-21T08:08:32.759Z,10.60
2018-05-21T08:10:59.169Z,10.60
2018-05-21T08:13:25.572Z,11.40
2018-05-21T08:15:51.977Z,10.95
2018-05-21T08:18:18.382Z,11.10
2018-05-21T08:20:47.093Z,10.93
2018-05-21T08:23:13.672Z,11.07
2018-05-21T08:25:40.052Z,10.45
2018-05-21T08:28:10.322Z,10.07
2018-05-21T08:30:36.980Z,10.23
2018-05-21T08:33:06.563Z,9.10
2018-05-21T08:37:38.534Z,9.23
2018-05-21T08:40:09.951Z,9.63
2018-05-21T08:42:41.566Z,9.90
2018-05-21T08:45:12.080Z,9.57
2018-05-21T08:47:43.498Z,9.40
2018-05-21T08:50:14.602Z,10.75
2018-05-21T08:52:46.530Z,10.57
2018-05-21T08:55:18.804Z,10.15
2018-05-21T08:57:50.015Z,9.75
2018-05-21T09:00:20.828Z,9.23
2018-05-21T09:02:51.698Z,10.10
2018-05-21T09:05:24.026Z,10.35
2018-05-21T09:07:54.769Z,10.25
2018-05-21T09:10:23.552Z,9.55
2018-05-21T09:12:50.169Z,10.02
2018-05-21T09:15:20.988Z,9.60
2018-05-21T09:17:51.353Z,9.80
2018-05-21T09:20:21.088Z,8.80
2018-05-21T09:22:50.585Z,9.18
2018-05-21T09:25:17.186Z,8.75
2018-05-21T09:27:44.328Z,9.10
2018-05-21T09:30:10.709Z,8.70
2018-05-21T09:32:40.411Z,8.30
2018-05-21T09:35:09.722Z,9.05
2018-05-21T09:37:40.591Z,8.98
2018-05-21T09:40:13.793Z,9.00
2018-05-21T09:42:46.479Z,8.93
2018-05-21T09:45:15.321Z,8.85
2018-05-21T09:47:41.878Z,8.65
2018-05-21T09:50:08.319Z,8.48
2018-05-21T09:52:38.188Z,9.27
2018-05-21T09:55:04.715Z,8.93
2018-05-21T09:57:34.418Z,9.57
2018-05-21T10:00:03.509Z,9.07
2018-05-21T10:02:31.691Z,8.80
2018-05-21T10:04:58.112Z,8.30
2018-05-21T10:07:28.294Z,8.07
2018-05-21T10:09:59.840Z,7.97
2018-05-21T10:12:28.645Z,8.25
2018-05-21T10:14:58.105Z,7.90
2018-05-21T10:17:30.446Z,7.87
2018-05-21T10:19:59.963Z,7.70
2018-05-21T10:22:30.536Z,7.00
2018-05-21T10:25:00.807Z,6.75
2018-05-21T10:27:27.308Z,6.22
2018-05-21T10:29:57.191Z,6.80
2018-05-21T10:32:26.900Z,7.15
2018-05-21T10:34:57.448Z,5.95
2018-05-21T10:37:24.144Z,6.30
2018-05-21T10:39:50.696Z,6.45
2018-05-21T10:42:19.490Z,6.50
2018-05-21T10:44:52.412Z,6.20
2018-05-21T10:47:24.102Z,6.10
2018-05-21T10:49:56.664Z,5.93
2018-05-21T10:52:28.302Z,5.60
2018-05-21T10:54:59.788Z,5.50
2018-05-21T10:57:27.192Z,5.40
2018-05-21T10:59:53.584Z,6.70
2018-05-21T11:02:20.200Z,5.20
2018-05-21T11:04:46.777Z,5.30
2018-05-21T11:07:13.183Z,5.30
2018-05-21T11:09:39.747Z,6.40
2018-05-21T11:12:07.282Z,5.80
2018-05-21T11:14:34.512Z,5.17
2018-05-21T11:17:01.269Z,5.37
2018-05-21T11:19:27.825Z,4.33
2018-05-21T11:21:54.248Z,3.27
2018-05-21T11:24:20.850Z,6.90
2018-05-21T11:26:48.173Z,4.13
2018-05-21T11:29:14.695Z,4.60
2018-05-21T11:31:42.016Z,4.17
2018-05-21T11:34:08.461Z,4.13
2018-05-21T11:36:34.839Z,5.47
2018-05-21T11:39:02.036Z,4.17
2018-05-21T11:41:28.642Z,4.53
2018-05-21T11:44:01.191Z,3.87
2018-05-21T11:46:35.055Z,4.17
2018-05-21T11:49:06.794Z,4.37
2018-05-21T11:51:39.296Z,4.10
2018-05-21T11:54:12.225Z,5.87
2018-05-21T11:56:43.509Z,5.23
2018-05-21T11:59:14.012Z,4.10
2018-05-21T12:01:43.696Z,4.53
2018-05-21T12:04:14.245Z,4.77
2018-05-21T12:06:44.599Z,3.37
2018-05-21T12:09:13.395Z,3.63
2018-05-21T12:11:41.859Z,4.07
2018-05-21T12:14:10.967Z,5.10
2018-05-21T12:16:40.080Z,5.37
2018-05-21T12:19:13.768Z,5.27
2018-05-21T12:21:44.652Z,5.63
2018-05-21T12:24:16.077Z,5.53
2018-05-21T12:26:46.409Z,5.47
2018-05-21T12:29:17.139Z,5.20
2018-05-21T12:31:48.375Z,4.57
2018-05-21T12:34:16.291Z,4.80
2018-05-21T12:36:43.569Z,4.70
2018-05-21T12:39:15.614Z,6.80
2018-05-21T12:41:45.584Z,5.63
2018-05-21T12:44:15.618Z,5.40
2018-05-21T12:46:45.235Z,4.57
2018-05-21T12:49:12.110Z,5.90
2018-05-21T12:51:39.292Z,5.80
2018-05-21T12:54:05.699Z,6.20
2018-05-21T12:56:32.068Z,5.63
2018-05-21T12:58:59.205Z,5.17
2018-05-21T13:01:25.636Z,4.83
2018-05-21T13:03:55.936Z,5.20
2018-05-21T13:06:23.159Z,6.13
2018-05-21T13:08:50.267Z,5.17
2018-05-21T13:11:16.663Z,4.30
2018-05-21T13:13:43.068Z,5.20
2018-05-21T13:16:09.427Z,4.87
2018-05-21T13:18:35.812Z,3.80
2018-05-21T13:21:02.223Z,6.30
2018-05-21T13:23:34.068Z,4.60
2018-05-21T13:26:01.596Z,5.07
2018-05-21T13:28:33.538Z,4.17
2018-05-21T13:31:03.100Z,6.40
2018-05-21T13:33:29.858Z,4.47
2018-05-21T13:36:01.601Z,3.90
2018-05-21T13:38:28.280Z,4.07
2018-05-21T13:40:54.712Z,4.50
2018-05-21T13:43:21.103Z,4.20
2018-05-21T13:45:47.833Z,5.47
2018-05-21T13:48:17.633Z,5.03
2018-05-21T13:50:47.762Z,3.90
2018-05-21T13:53:14.811Z,4.03
2018-05-21T13:55:46.824Z,4.60
2018-05-21T13:58:15.381Z,4.13
2018-05-21T14:00:45.257Z,5.67
2018-05-21T14:03:14.156Z,4.13
2018-05-21T14:05:45.206Z,11.50
2018-05-21T14:08:11.625Z,7.20
2018-05-21T14:10:44.017Z,21.73
2018-05-21T14:13:15.947Z,4.73
2018-05-21T14:15:44.430Z,5.97
2018-05-21T14:18:11.767Z,4.77
2018-05-21T14:20:42.733Z,4.70
2018-05-21T14:23:12.274Z,4.47
2018-05-21T14:25:38.680Z,4.77
2018-05-21T14:28:05.083Z,4.23
2018-05-21T14:30:31.476Z,4.47
2018-05-21T14:32:58.654Z,4.80
2018-05-21T14:35:25.166Z,4.67
2018-05-21T14:37:52.285Z,3.90
2018-05-21T14:40:18.703Z,5.37
2018-05-21T14:42:45.184Z,4.67
2018-05-21T14:45:12.370Z,4.67
2018-05-21T14:47:38.795Z,4.50
2018-05-21T14:50:05.236Z,4.60
2018-05-21T14:52:31.648Z,5.07
2018-05-21T14:54:58.861Z,4.63
2018-05-21T14:57:25.929Z,4.57
2018-05-21T14:59:52.317Z,5.17
2018-05-21T15:02:18.709Z,5.73
2018-05-21T15:04:49.455Z,4.67
2018-05-21T15:07:19.639Z,4.87
2018-05-21T15:09:50.897Z,5.30
2018-05-21T15:12:21.455Z,4.33
2018-05-21T15:14:48.031Z,4.13
2018-05-21T15:17:18.317Z,4.13
2018-05-21T16:26:54.475Z,3.40
2018-05-21T16:29:25.361Z,3.50
2018-05-21T16:31:55.137Z,2.67
2018-05-21T16:34:26.441Z,3.73
2018-05-21T16:36:58.317Z,4.10
2018-05-21T16:39:26.471Z,3.70
2018-05-21T16:41:57.541Z,4.13
2018-05-21T16:44:28.299Z,3.23
2018-05-21T16:46:54.969Z,3.40
2018-05-21T16:49:22.277Z,3.87
2018-05-21T16:51:49.396Z,4.10
2018-05-21T16:54:15.808Z,4.30
2018-05-21T16:56:42.198Z,4.60
2018-05-21T16:59:09.336Z,7.07
2018-05-21T17:01:36.473Z,6.20
2018-05-21T17:04:02.890Z,5.70
2018-05-21T17:06:29.303Z,10.27
2018-05-21T17:08:55.675Z,6.03
2018-05-21T17:11:22.064Z,5.80
2018-05-21T17:13:48.469Z,4.73
2018-05-21T17:16:15.607Z,6.62
2018-05-21T17:18:45.557Z,6.53
2018-05-21T17:21:14.836Z,6.60
2018-05-21T17:26:13.975Z,6.90
2018-05-21T17:28:44.165Z,7.03
2018-05-21T17:31:12.296Z,6.05
2018-05-21T17:33:42.903Z,5.07
2018-05-21T17:36:11.737Z,5.55
2018-05-21T17:38:42.161Z,4.53
2018-05-21T17:41:12.824Z,4.60
2018-05-21T17:43:44.232Z,4.27
2018-05-21T17:46:18.277Z,5.00
2018-05-21T17:48:45.059Z,3.87
2018-05-21T17:51:16.341Z,3.80
2018-05-21T17:53:44.664Z,5.10
2018-05-21T17:56:16.146Z,4.00
2018-05-21T17:58:42.763Z,3.90
2018-05-21T18:01:13.382Z,3.77
2018-05-21T18:03:43.516Z,3.10
2018-05-21T18:06:15.903Z,4.67
2018-05-21T18:08:49.359Z,3.80
2018-05-21T18:11:21.545Z,3.60
2018-05-21T18:13:48.912Z,3.50
2018-05-21T18:16:16.032Z,5.03
2018-05-21T18:18:47.757Z,4.00
2018-05-21T18:23:48.572Z,5.28
2018-05-21T18:26:15.716Z,4.97
2018-05-21T18:31:11.006Z,5.87
2018-05-21T18:33:37.529Z,5.93
2018-05-21T18:36:03.943Z,5.60
2018-05-21T18:38:31.286Z,5.25
2018-05-21T18:40:58.400Z,14.13
2018-05-21T18:45:50.999Z,4.73
2018-05-21T20:37:39.754Z,9.15
2018-05-21T20:40:06.244Z,9.80
2018-05-21T20:42:32.728Z,9.70
2018-05-21T20:44:59.163Z,9.40
2018-05-21T20:47:25.552Z,10.25
2018-05-21T20:49:52.000Z,11.38
2018-05-21T20:52:18.401Z,10.30
2018-05-21T20:54:44.801Z,11.98
2018-05-21T20:57:11.210Z,11.50
2018-05-21T20:59:37.628Z,11.70
2018-05-21T21:02:04.059Z,11.80
2018-05-21T21:04:30.461Z,12.30
2018-05-21T21:06:56.855Z,11.45
2018-05-21T21:09:23.262Z,11.90
2018-05-21T21:11:49.640Z,11.82
2018-05-21T21:14:16.043Z,12.20
2018-05-21T21:16:42.483Z,12.30
2018-05-21T21:19:08.849Z,11.85
2018-05-21T21:21:36.023Z,12.18
2018-05-21T21:24:02.406Z,12.13
2018-05-21T21:26:28.816Z,12.80
2018-05-21T21:28:55.240Z,13.77
2018-05-21T21:31:21.644Z,13.10
2018-05-21T21:33:48.791Z,12.93
2018-05-21T21:36:15.964Z,12.20
2018-05-21T21:38:42.375Z,13.55
2018-05-21T21:41:09.502Z,13.80
2018-05-21T21:43:35.906Z,13.95
2018-05-21T21:46:02.321Z,13.32
2018-05-21T21:48:28.686Z,14.20
2018-05-21T21:50:55.076Z,14.65
2018-05-21T21:53:21.494Z,13.38
2018-05-21T21:55:47.890Z,13.62
2018-05-21T21:58:14.292Z,13.90
2018-05-21T22:00:40.748Z,14.07
2018-05-21T22:03:07.143Z,14.18
2018-05-21T22:05:34.264Z,15.60
2018-05-21T22:08:00.699Z,15.10
2018-05-21T22:10:27.159Z,15.82
2018-05-21T22:12:54.283Z,15.65
2018-05-21T22:15:20.687Z,14.33
2018-05-21T22:17:47.092Z,13.38
2018-05-21T22:20:13.472Z,14.18
2018-05-21T22:22:39.907Z,13.73
2018-05-21T22:25:06.319Z,14.98
2018-05-21T22:27:32.736Z,14.25
2018-05-21T22:29:59.143Z,14.43
2018-05-21T22:32:26.265Z,13.62
2018-05-21T22:34:52.668Z,14.75
2018-05-21T22:37:19.076Z,17.10
2018-05-21T22:39:46.225Z,14.43
2018-05-21T22:42:13.367Z,14.43
2018-05-21T22:44:41.283Z,13.88
2018-05-21T22:47:07.724Z,13.90
2018-05-21T22:49:34.143Z,14.02
2018-05-21T22:52:00.561Z,13.43
2018-05-21T22:54:33.996Z,12.25
2018-05-21T22:57:00.436Z,13.80
2018-05-21T22:59:26.851Z,12.10
2018-05-21T23:01:53.237Z,11.95
2018-05-21T23:04:20.377Z,11.52
2018-05-21T23:06:46.784Z,10.43
2018-05-21T23:09:13.185Z,9.82
2018-05-21T23:11:39.599Z,10.00
2018-05-21T23:14:06.746Z,9.68
2018-05-21T23:16:33.889Z,10.70
2018-05-21T23:19:00.270Z,10.88
2018-05-21T23:21:26.661Z,10.23
2018-05-21T23:23:53.780Z,10.10
2018-05-21T23:26:20.248Z,11.27
2018-05-21T23:28:47.404Z,10.90
2018-05-21T23:31:14.521Z,11.45
2018-05-21T23:33:40.941Z,10.20
2018-05-21T23:36:07.316Z,10.65
2018-05-21T23:38:34.485Z,11.43
2018-05-21T23:41:01.616Z,11.90
2018-05-21T23:43:28.755Z,11.75
2018-05-21T23:45:55.163Z,11.48
2018-05-21T23:48:21.589Z,11.47
2018-05-21T23:50:48.000Z,11.15
2018-05-21T23:53:14.403Z,10.82
2018-05-21T23:55:40.775Z,11.12
2018-05-21T23:58:07.192Z,10.38
